Time;durP1;ratioP1;P1;durP2;ratioP2;P2;SDS_P1;SDS_P2;PMS_P1;PMS_P2;Temp;Humidity;BMP_temperature;BMP_pressure;BME280_temperature;BME280_humidity;BME280_pressure;Samples;Min_cycle;Max_cycle;Signal;HPM_P1;HPM_P2
2024/02/27 00:01:57;;;;;;;65.13;26.75;;;3.60;99.90;;;;;;5062645;28;20021;-73
2024/02/27 00:04:23;;;;;;;77.10;28.27;;;3.60;99.90;;;;;;5064046;28;20089;-72
2024/02/27 00:06:50;;;;;;;66.57;26.67;;;3.60;99.90;;;;;;5064100;28;20037;-74
2024/02/27 00:09:18;;;;;;;74.78;29.05;;;3.70;99.90;;;;;;5062073;28;20045;-72
2024/02/27 00:11:44;;;;;;;66.30;26.38;;;3.70;99.90;;;;;;5061809;28;20444;-72
2024/02/27 00:14:10;;;;;;;64.13;25.90;;;3.70;99.90;;;;;;5063711;28;20025;-72
2024/02/27 00:16:35;;;;;;;69.75;27.13;;;3.70;99.90;;;;;;5064021;28;20096;-72
2024/02/27 00:19:01;;;;;;;65.53;25.52;;;3.70;99.90;;;;;;5062819;28;20104;-72
2024/02/27 00:21:27;;;;;;;64.07;26.63;;;3.60;99.90;;;;;;5063180;28;20037;-73
2024/02/27 00:23:52;;;;;;;66.28;25.08;;;3.60;99.90;;;;;;5063653;28;20090;-73
2024/02/27 00:26:18;;;;;;;63.15;24.42;;;3.60;99.90;;;;;;5062668;28;20032;-73
2024/02/27 00:28:43;;;;;;;63.90;25.00;;;3.60;99.90;;;;;;5063234;28;20033;-71
2024/02/27 00:31:09;;;;;;;60.15;23.65;;;3.60;99.90;;;;;;5063330;28;20032;-73
2024/02/27 00:33:34;;;;;;;64.43;23.65;;;3.60;99.90;;;;;;5062647;28;20104;-73
2024/02/27 00:36:01;;;;;;;59.42;23.45;;;3.60;99.90;;;;;;5063425;28;20036;-72
2024/02/27 00:38:27;;;;;;;64.03;23.40;;;3.60;99.90;;;;;;5063242;28;20033;-73
2024/02/27 00:40:52;;;;;;;58.58;23.50;;;3.50;99.90;;;;;;5063433;28;20052;-72
2024/02/27 00:43:18;;;;;;;65.18;23.42;;;3.50;99.90;;;;;;5063110;28;20029;-72
2024/02/27 00:45:44;;;;;;;60.10;22.77;;;3.50;99.90;;;;;;5062309;28;20029;-71
2024/02/27 00:48:09;;;;;;;63.92;22.83;;;3.50;99.90;;;;;;5063185;28;20033;-74
2024/02/27 00:50:35;;;;;;;63.17;23.58;;;3.50;99.90;;;;;;5061925;28;20027;-72
2024/02/27 00:53:01;;;;;;;62.60;23.80;;;3.50;99.90;;;;;;5063667;28;20509;-73
2024/02/27 00:55:26;;;;;;;65.28;23.00;;;3.50;99.90;;;;;;5061576;28;20025;-73
2024/02/27 00:57:52;;;;;;;66.40;23.50;;;3.50;99.90;;;;;;5061792;28;20276;-72
2024/02/27 01:00:18;;;;;;;61.95;21.50;;;3.60;99.90;;;;;;5062993;28;20033;-72
2024/02/27 01:02:44;;;;;;;62.88;22.35;;;3.60;99.90;;;;;;5063084;28;20063;-72
2024/02/27 01:05:10;;;;;;;69.47;23.13;;;3.60;99.90;;;;;;5061575;28;20063;-73
2024/02/27 01:07:36;;;;;;;67.78;22.85;;;3.50;99.90;;;;;;5062314;28;20032;-74
2024/02/27 01:10:03;;;;;;;68.95;22.40;;;3.60;99.90;;;;;;5062646;28;20512;-72
2024/02/27 01:12:29;;;;;;;67.85;21.88;;;3.60;99.90;;;;;;5062327;28;20085;-73
2024/02/27 01:14:54;;;;;;;66.10;23.77;;;3.60;99.90;;;;;;5063027;28;20693;-72
2024/02/27 01:17:20;;;;;;;64.15;22.95;;;3.60;99.90;;;;;;5062266;28;20063;-71
2024/02/27 01:19:45;;;;;;;68.05;22.92;;;3.60;99.90;;;;;;5060456;28;20056;-71
2024/02/27 01:22:12;;;;;;;64.03;24.02;;;3.60;99.90;;;;;;5061500;28;20040;-72
2024/02/27 01:24:38;;;;;;;80.32;23.17;;;3.50;99.90;;;;;;5061667;28;20025;-71
2024/02/27 01:27:04;;;;;;;72.93;24.20;;;3.60;99.90;;;;;;5060376;28;20065;-72
2024/02/27 01:29:30;;;;;;;73.38;23.45;;;3.60;99.90;;;;;;5061582;28;20084;-73
2024/02/27 01:31:56;;;;;;;65.38;23.67;;;3.50;99.90;;;;;;5062559;28;20057;-72
2024/02/27 01:34:21;;;;;;;81.47;24.45;;;3.50;99.90;;;;;;5062478;28;20044;-72
2024/02/27 01:36:47;;;;;;;71.47;23.95;;;3.50;99.90;;;;;;5061708;28;20037;-72
2024/02/27 01:39:13;;;;;;;74.70;23.08;;;3.50;99.90;;;;;;5060899;28;20041;-72
2024/02/27 01:41:47;;;;;;;86.78;24.75;;;3.50;99.90;;;;;;5061472;28;20057;-73
2024/02/27 01:44:13;;;;;;;79.43;24.67;;;3.50;99.90;;;;;;5060190;28;20044;-72
2024/02/27 01:46:40;;;;;;;74.13;23.50;;;3.50;99.90;;;;;;5060619;28;20037;-73
2024/02/27 01:49:07;;;;;;;81.43;23.88;;;3.50;99.90;;;;;;5060376;28;20097;-74
2024/02/27 01:51:32;;;;;;;78.25;24.02;;;3.60;99.90;;;;;;5060956;28;20083;-73
2024/02/27 01:54:00;;;;;;;79.05;24.90;;;3.60;99.90;;;;;;5061922;28;20028;-72
2024/02/27 01:56:26;;;;;;;77.80;24.65;;;3.60;99.90;;;;;;5061959;28;20082;-72
2024/02/27 01:58:54;;;;;;;71.07;23.70;;;3.60;99.90;;;;;;5061838;28;20131;-72
2024/02/27 02:01:20;;;;;;;74.72;24.65;;;3.60;99.90;;;;;;5061457;28;20541;-72
2024/02/27 02:03:46;;;;;;;76.05;23.52;;;3.60;99.90;;;;;;5061168;28;20048;-72
2024/02/27 02:06:11;;;;;;;72.93;22.67;;;3.70;99.90;;;;;;5061478;28;20028;-74
2024/02/27 02:08:38;;;;;;;78.13;23.20;;;3.70;99.90;;;;;;5061636;28;20105;-73
2024/02/27 02:11:06;;;;;;;75.78;24.48;;;3.70;99.90;;;;;;5061178;28;20021;-72
2024/02/27 02:13:32;;;;;;;75.28;24.63;;;3.70;99.90;;;;;;5060489;28;20067;-74
2024/02/27 02:15:58;;;;;;;80.70;25.17;;;3.70;99.90;;;;;;5060262;28;20204;-72
2024/02/27 02:18:24;;;;;;;75.07;24.60;;;3.70;99.90;;;;;;5061395;28;20041;-72
2024/02/27 02:20:49;;;;;;;79.68;24.45;;;3.70;99.90;;;;;;5059828;28;20060;-74
2024/02/27 02:23:15;;;;;;;75.50;24.67;;;3.70;99.90;;;;;;5060463;28;20486;-71
2024/02/27 02:25:41;;;;;;;73.38;24.73;;;3.80;99.90;;;;;;5060338;28;20044;-72
2024/02/27 02:28:07;;;;;;;77.55;23.95;;;3.80;99.90;;;;;;5060925;28;20060;-73
2024/02/27 02:30:32;;;;;;;73.68;24.23;;;3.70;99.90;;;;;;5060119;28;20032;-73
2024/02/27 02:32:59;;;;;;;81.70;25.13;;;3.80;99.90;;;;;;5060013;28;20163;-72
2024/02/27 02:35:24;;;;;;;79.80;25.20;;;3.80;99.90;;;;;;5060362;28;20040;-72
2024/02/27 02:37:50;;;;;;;82.85;26.10;;;3.80;99.90;;;;;;5060573;28;20029;-74
2024/02/27 02:40:17;;;;;;;72.18;24.25;;;3.80;99.90;;;;;;5060937;28;20036;-72
2024/02/27 02:42:43;;;;;;;73.63;23.92;;;3.80;99.90;;;;;;5061352;28;20461;-72
2024/02/27 02:45:09;;;;;;;75.85;24.35;;;3.80;99.90;;;;;;5061245;28;20120;-73
2024/02/27 02:47:35;;;;;;;67.88;22.63;;;3.80;99.90;;;;;;5060618;28;20048;-73
2024/02/27 02:50:00;;;;;;;79.18;24.25;;;3.80;99.90;;;;;;5059508;28;20040;-73
2024/02/27 02:52:26;;;;;;;80.20;23.77;;;3.80;99.90;;;;;;5061629;28;20025;-73
2024/02/27 02:54:52;;;;;;;75.47;24.35;;;3.80;99.90;;;;;;5061028;28;20021;-73
2024/02/27 02:57:18;;;;;;;76.05;25.15;;;3.80;99.90;;;;;;5061442;28;20033;-73
2024/02/27 02:59:43;;;;;;;73.15;24.23;;;3.90;99.90;;;;;;5060151;28;20044;-73
2024/02/27 03:02:09;;;;;;;68.80;24.58;;;3.90;99.90;;;;;;5060929;28;20097;-73
2024/02/27 03:04:34;;;;;;;73.72;24.58;;;3.90;99.90;;;;;;5061574;28;20029;-74
2024/02/27 03:07:00;;;;;;;73.07;23.58;;;3.90;99.90;;;;;;5061145;28;20127;-72
2024/02/27 03:09:26;;;;;;;76.15;24.75;;;3.90;99.90;;;;;;5060674;28;20075;-74
2024/02/27 03:11:51;;;;;;;72.38;23.52;;;3.90;99.90;;;;;;5061063;28;20036;-73
2024/02/27 03:14:17;;;;;;;75.13;24.52;;;3.90;99.90;;;;;;5061062;28;20082;-71
2024/02/27 03:16:45;;;;;;;66.05;21.45;;;3.90;99.90;;;;;;5064913;28;20025;-73
2024/02/27 03:19:14;;;;;;;66.85;22.83;;;3.90;99.90;;;;;;5063926;28;20061;-71
2024/02/27 03:21:40;;;;;;;71.32;22.77;;;3.90;99.90;;;;;;5064444;28;20035;-73
2024/02/27 03:24:05;;;;;;;68.40;24.38;;;3.90;99.90;;;;;;5064805;28;20132;-73
2024/02/27 03:26:31;;;;;;;69.20;23.38;;;4.00;99.90;;;;;;5063056;28;20024;-73
2024/02/27 03:28:57;;;;;;;72.93;24.27;;;4.00;99.90;;;;;;5062896;28;20104;-72
2024/02/27 03:31:23;;;;;;;67.20;23.83;;;4.00;99.90;;;;;;5063496;28;20029;-73
2024/02/27 03:33:49;;;;;;;72.28;23.67;;;4.00;99.90;;;;;;5063353;28;20033;-71
2024/02/27 03:36:15;;;;;;;65.10;22.67;;;4.00;99.90;;;;;;5064527;28;20029;-72
2024/02/27 03:38:42;;;;;;;64.65;23.95;;;4.00;99.90;;;;;;5062961;28;20482;-72
2024/02/27 03:41:14;;;;;;;63.03;23.20;;;4.00;99.90;;;;;;5062380;28;20021;-73
2024/02/27 03:43:43;;;;;;;62.97;22.95;;;4.10;99.90;;;;;;5063982;28;20036;-73
2024/02/27 03:46:12;;;;;;;68.32;24.13;;;4.00;99.90;;;;;;5063914;28;20029;-72
2024/02/27 03:48:38;;;;;;;68.32;23.90;;;4.00;99.90;;;;;;5064323;28;20063;-71
2024/02/27 03:51:03;;;;;;;70.05;24.80;;;4.00;99.90;;;;;;5063503;28;20029;-72
2024/02/27 03:53:30;;;;;;;68.63;22.85;;;4.00;99.90;;;;;;5063381;28;20035;-72
2024/02/27 03:55:56;;;;;;;61.75;22.90;;;4.10;99.90;;;;;;5064259;28;20025;-73
2024/02/27 03:58:21;;;;;;;66.45;23.15;;;4.00;99.90;;;;;;5063486;28;20064;-73
2024/02/27 04:00:47;;;;;;;70.28;23.27;;;4.00;99.90;;;;;;5063640;28;20385;-72
2024/02/27 04:03:13;;;;;;;66.05;23.77;;;4.00;99.90;;;;;;5063415;28;20031;-73
2024/02/27 04:05:38;;;;;;;60.63;22.17;;;4.00;99.90;;;;;;5064763;28;20126;-73
2024/02/27 04:08:08;;;;;;;63.88;23.55;;;4.10;99.90;;;;;;5063351;28;20525;-72
2024/02/27 04:10:37;;;;;;;62.80;21.95;;;4.10;99.90;;;;;;5063652;28;20032;-72
2024/02/27 04:13:03;;;;;;;65.55;23.02;;;4.10;99.90;;;;;;5064827;28;20029;-73
2024/02/27 04:15:29;;;;;;;64.95;23.35;;;4.10;99.90;;;;;;5063217;28;20055;-73
2024/02/27 04:17:55;;;;;;;62.67;22.40;;;4.00;99.90;;;;;;5063545;28;20342;-73
2024/02/27 04:20:22;;;;;;;58.72;21.83;;;4.00;99.90;;;;;;5064578;28;20037;-74
2024/02/27 04:22:47;;;;;;;60.00;22.83;;;4.10;99.90;;;;;;5063472;28;20555;-72
2024/02/27 04:25:13;;;;;;;63.17;23.10;;;4.10;99.90;;;;;;5061188;28;20047;-73
2024/02/27 04:27:40;;;;;;;65.10;23.70;;;4.10;99.90;;;;;;5064532;28;20024;-73
2024/02/27 04:30:06;;;;;;;58.28;20.80;;;4.00;99.90;;;;;;5062443;28;20094;-74
2024/02/27 04:32:33;;;;;;;58.10;22.52;;;4.10;99.90;;;;;;5063629;28;20031;-75
2024/02/27 04:34:59;;;;;;;56.28;21.42;;;4.10;99.90;;;;;;5063394;28;20021;-72
2024/02/27 04:37:24;;;;;;;57.88;20.38;;;4.10;99.90;;;;;;5064565;28;20385;-71
2024/02/27 04:39:50;;;;;;;58.92;21.92;;;4.10;99.90;;;;;;5064025;28;20056;-71
2024/02/27 04:42:15;;;;;;;58.63;22.02;;;4.10;99.90;;;;;;5062985;28;20025;-73
2024/02/27 04:44:41;;;;;;;59.00;22.40;;;4.10;99.90;;;;;;5064424;28;20032;-73
2024/02/27 04:47:06;;;;;;;51.42;19.83;;;4.10;99.90;;;;;;5062546;28;20111;-72
2024/02/27 04:49:33;;;;;;;57.10;21.05;;;4.10;99.90;;;;;;5064243;28;20027;-73
2024/02/27 04:51:58;;;;;;;59.30;22.00;;;4.10;99.90;;;;;;5064413;28;20060;-73
2024/02/27 04:54:24;;;;;;;56.92;21.55;;;4.10;99.90;;;;;;5062608;28;20029;-73
2024/02/27 04:56:49;;;;;;;57.72;21.80;;;4.10;99.90;;;;;;5062310;28;20029;-73
2024/02/27 04:59:15;;;;;;;62.50;22.13;;;4.00;99.90;;;;;;5062777;28;20493;-72
2024/02/27 05:01:41;;;;;;;53.92;21.05;;;4.00;99.90;;;;;;5062823;28;20021;-72
2024/02/27 05:04:07;;;;;;;56.53;21.05;;;4.10;99.90;;;;;;5061036;28;20017;-73
2024/02/27 05:06:33;;;;;;;54.38;20.95;;;4.10;99.90;;;;;;5061448;28;20028;-75
2024/02/27 05:08:59;;;;;;;57.17;21.17;;;4.10;99.90;;;;;;5063472;28;20041;-72
2024/02/27 05:11:26;;;;;;;58.67;21.02;;;4.10;99.90;;;;;;5061252;28;20029;-72
2024/02/27 05:13:51;;;;;;;60.92;21.55;;;4.00;99.90;;;;;;5062996;28;20398;-73
2024/02/27 05:16:17;;;;;;;54.83;20.60;;;4.00;99.90;;;;;;5063503;28;20023;-72
2024/02/27 05:18:42;;;;;;;55.08;20.05;;;4.00;99.90;;;;;;5061102;28;20041;-72
2024/02/27 05:21:08;;;;;;;57.85;20.42;;;4.00;99.90;;;;;;5063413;28;21059;-72
2024/02/27 05:23:35;;;;;;;63.65;22.45;;;4.00;99.90;;;;;;5063682;28;20083;-73
2024/02/27 05:26:00;;;;;;;61.80;21.42;;;4.00;99.90;;;;;;5063184;28;20021;-73
2024/02/27 05:28:26;;;;;;;59.35;21.58;;;4.00;99.90;;;;;;5063108;28;20123;-71
2024/02/27 05:30:55;;;;;;;59.72;21.65;;;4.00;99.90;;;;;;5062262;28;20031;-72
2024/02/27 05:33:21;;;;;;;53.58;19.58;;;4.00;99.90;;;;;;5061464;28;20055;-71
2024/02/27 05:35:46;;;;;;;60.03;20.33;;;4.00;99.90;;;;;;5062576;28;20029;-72
2024/02/27 05:38:12;;;;;;;54.92;20.25;;;3.90;99.90;;;;;;5061939;28;20119;-72
2024/02/27 05:40:37;;;;;;;56.53;20.55;;;3.90;99.90;;;;;;5062834;28;20024;-72
2024/02/27 05:43:03;;;;;;;55.22;20.13;;;3.90;99.90;;;;;;5060173;28;20029;-72
2024/02/27 05:45:29;;;;;;;59.03;20.92;;;4.00;99.90;;;;;;5062537;28;20048;-71
2024/02/27 05:47:55;;;;;;;58.20;21.80;;;3.90;99.90;;;;;;5062233;28;20032;-72
2024/02/27 05:50:20;;;;;;;54.45;19.80;;;3.90;99.90;;;;;;5060641;28;20021;-71
2024/02/27 05:52:46;;;;;;;64.10;21.20;;;4.00;99.90;;;;;;5061978;28;20025;-73
2024/02/27 05:55:12;;;;;;;55.10;20.27;;;3.90;99.90;;;;;;5061134;28;20071;-72
2024/02/27 05:57:38;;;;;;;52.28;19.00;;;3.80;99.90;;;;;;5060374;28;20437;-72
2024/02/27 06:00:05;;;;;;;55.97;19.98;;;3.90;99.90;;;;;;5060643;28;20124;-72
2024/02/27 06:02:30;;;;;;;61.97;20.30;;;3.80;99.90;;;;;;5072873;28;20029;-73
2024/02/27 06:04:56;;;;;;;53.58;20.27;;;3.90;99.90;;;;;;5048830;28;20085;-72
2024/02/27 06:07:21;;;;;;;55.95;19.73;;;3.90;99.90;;;;;;5059896;28;20040;-71
2024/02/27 06:09:47;;;;;;;53.88;18.90;;;3.90;99.90;;;;;;5062026;28;20045;-72
2024/02/27 06:12:13;;;;;;;52.28;18.30;;;3.80;99.90;;;;;;5060587;28;20100;-71
2024/02/27 06:14:39;;;;;;;55.65;18.98;;;3.80;99.90;;;;;;5062755;28;20109;-72
2024/02/27 06:17:04;;;;;;;52.80;19.02;;;3.80;99.90;;;;;;5056484;28;20027;-73
2024/02/27 06:19:30;;;;;;;58.03;18.60;;;3.80;99.90;;;;;;5059703;28;20108;-72
2024/02/27 06:22:12;;;;;;;55.08;19.75;;;3.80;99.90;;;;;;5058828;28;20036;-71
2024/02/27 06:24:38;;;;;;;51.22;18.92;;;3.80;99.90;;;;;;5062430;28;20020;-72
2024/02/27 06:27:05;;;;;;;57.80;19.83;;;3.90;99.90;;;;;;5061574;28;20064;-71
2024/02/27 06:29:31;;;;;;;54.28;19.83;;;3.90;99.90;;;;;;5059674;28;20120;-73
2024/02/27 06:31:56;;;;;;;55.05;18.50;;;3.80;99.90;;;;;;5060947;28;20052;-72
2024/02/27 06:34:22;;;;;;;47.40;17.15;;;3.80;99.90;;;;;;5061196;28;20560;-72
2024/02/27 06:36:48;;;;;;;60.67;20.30;;;3.80;99.90;;;;;;5061146;28;20039;-72
2024/02/27 06:39:14;;;;;;;57.25;18.95;;;3.80;99.90;;;;;;5058447;28;20038;-72
2024/02/27 06:41:39;;;;;;;54.90;18.42;;;3.80;99.90;;;;;;5056526;28;20029;-72
2024/02/27 06:44:05;;;;;;;49.15;19.23;;;3.80;99.90;;;;;;5056804;28;20053;-72
2024/02/27 06:46:31;;;;;;;54.80;19.92;;;3.80;99.90;;;;;;5059522;28;20462;-72
2024/02/27 06:48:57;;;;;;;55.60;19.23;;;3.90;99.90;;;;;;5058355;28;20033;-72
2024/02/27 06:51:23;;;;;;;57.50;20.23;;;3.90;99.90;;;;;;5061129;28;20056;-73
2024/02/27 06:53:48;;;;;;;61.20;22.40;;;3.90;99.90;;;;;;5061317;28;20701;-72
2024/02/27 06:56:14;;;;;;;59.05;20.23;;;3.90;99.90;;;;;;5060587;28;20076;-72
2024/02/27 06:58:40;;;;;;;59.78;20.33;;;3.90;99.90;;;;;;5061613;28;20051;-73
2024/02/27 07:01:05;;;;;;;55.17;19.58;;;3.90;99.90;;;;;;5060123;28;20163;-73
2024/02/27 07:03:31;;;;;;;61.63;21.00;;;3.90;99.90;;;;;;5059180;28;20025;-73
2024/02/27 07:06:00;;;;;;;57.08;18.77;;;4.00;99.90;;;;;;5060452;28;20036;-73
2024/02/27 07:08:26;;;;;;;53.67;19.15;;;4.00;99.90;;;;;;5061074;28;20041;-72
2024/02/27 07:10:52;;;;;;;51.20;18.42;;;4.10;99.90;;;;;;5060388;28;20044;-73
2024/02/27 07:13:18;;;;;;;52.72;19.05;;;3.90;99.90;;;;;;5060312;28;20021;-72
2024/02/27 07:15:44;;;;;;;53.90;18.70;;;3.90;99.90;;;;;;5061991;28;20032;-71
2024/02/27 07:18:11;;;;;;;58.35;19.67;;;3.90;99.90;;;;;;5060514;28;20029;-71
2024/02/27 07:20:36;;;;;;;54.88;18.52;;;3.90;99.90;;;;;;5061613;28;20462;-73
2024/02/27 07:23:02;;;;;;;55.63;19.98;;;4.00;99.90;;;;;;5060671;28;20043;-73
2024/02/27 07:25:28;;;;;;;50.60;18.77;;;4.00;99.90;;;;;;5061858;28;20021;-72
2024/02/27 07:27:53;;;;;;;54.33;18.23;;;4.00;99.90;;;;;;5060286;28;20037;-72
2024/02/27 07:30:19;;;;;;;42.72;16.45;;;3.90;99.90;;;;;;5061643;28;20021;-71
2024/02/27 07:32:45;;;;;;;47.13;17.98;;;3.90;99.90;;;;;;5061868;28;20075;-71
2024/02/27 07:35:10;;;;;;;48.75;16.13;;;3.90;99.90;;;;;;5061348;28;20064;-71
2024/02/27 07:37:37;;;;;;;48.20;16.60;;;3.90;99.90;;;;;;5060238;28;20033;-72
2024/02/27 07:40:07;;;;;;;49.30;17.27;;;3.90;99.90;;;;;;5057642;28;20060;-73
2024/02/27 07:42:33;;;;;;;42.20;16.23;;;3.90;99.90;;;;;;5057602;28;20025;-71
2024/02/27 07:44:59;;;;;;;47.33;16.63;;;3.90;99.90;;;;;;5058234;28;20025;-74
2024/02/27 07:47:24;;;;;;;44.92;16.50;;;3.90;99.90;;;;;;5050338;28;20037;-71
2024/02/27 07:49:51;;;;;;;45.60;16.40;;;4.00;99.90;;;;;;5056382;28;20036;-72
2024/02/27 07:52:16;;;;;;;51.22;17.55;;;4.00;99.90;;;;;;5055334;28;20108;-72
2024/02/27 07:54:42;;;;;;;47.88;17.02;;;4.00;99.90;;;;;;5057296;28;20453;-71
2024/02/27 07:57:08;;;;;;;47.92;17.83;;;4.00;99.90;;;;;;5056700;28;20021;-73
2024/02/27 07:59:34;;;;;;;49.47;17.02;;;4.10;99.90;;;;;;5056453;28;20043;-73
2024/02/27 08:02:00;;;;;;;47.63;17.55;;;4.00;99.90;;;;;;5060949;28;20725;-73
2024/02/27 08:04:25;;;;;;;50.28;18.55;;;4.20;99.90;;;;;;5063221;28;20032;-73
2024/02/27 08:06:51;;;;;;;46.35;17.00;;;4.10;99.90;;;;;;5060181;28;20784;-73
2024/02/27 08:09:16;;;;;;;52.15;19.33;;;4.20;99.90;;;;;;5061269;28;20042;-71
2024/02/27 08:11:42;;;;;;;48.70;17.45;;;4.20;99.90;;;;;;5062268;28;20027;-72
2024/02/27 08:14:08;;;;;;;50.65;17.83;;;4.20;99.90;;;;;;5065077;28;20020;-72
2024/02/27 08:16:34;;;;;;;49.45;17.80;;;4.20;99.90;;;;;;5063807;28;20036;-72
2024/02/27 08:19:04;;;;;;;46.92;17.98;;;4.20;99.90;;;;;;5061890;28;20044;-71
2024/02/27 08:21:31;;;;;;;49.88;18.67;;;4.20;99.90;;;;;;5063456;28;20047;-71
2024/02/27 08:23:56;;;;;;;46.88;18.00;;;4.30;99.90;;;;;;5063162;28;20021;-71
2024/02/27 08:26:22;;;;;;;50.65;18.27;;;4.30;99.90;;;;;;5057715;28;20433;-72
2024/02/27 08:28:47;;;;;;;52.55;18.60;;;4.30;99.90;;;;;;5059123;28;20044;-71
2024/02/27 08:31:14;;;;;;;51.50;18.95;;;4.30;99.90;;;;;;5062102;28;20044;-73
2024/02/27 08:33:40;;;;;;;49.35;18.50;;;4.30;99.90;;;;;;5063100;28;20032;-71
2024/02/27 08:36:06;;;;;;;50.70;19.50;;;4.40;99.90;;;;;;5060440;28;20033;-72
2024/02/27 08:38:32;;;;;;;52.17;18.50;;;4.40;99.90;;;;;;5061253;28;20035;-71
2024/02/27 08:40:59;;;;;;;52.88;18.83;;;4.40;99.90;;;;;;5060335;28;20055;-71
2024/02/27 08:43:25;;;;;;;49.00;18.27;;;4.40;99.90;;;;;;5062738;28;20065;-73
2024/02/27 08:45:51;;;;;;;46.75;17.33;;;4.40;99.90;;;;;;5061825;28;20029;-73
2024/02/27 08:48:16;;;;;;;43.45;16.88;;;4.50;99.90;;;;;;5062349;28;20025;-72
2024/02/27 08:50:45;;;;;;;45.10;18.15;;;4.50;99.90;;;;;;5062182;28;20504;-73
2024/02/27 08:53:11;;;;;;;47.08;17.40;;;4.50;99.90;;;;;;5063346;28;20017;-72
2024/02/27 08:55:37;;;;;;;50.15;19.50;;;4.60;99.90;;;;;;5063326;28;20014;-72
2024/02/27 08:58:03;;;;;;;48.28;17.67;;;4.60;99.90;;;;;;5060663;28;20122;-73
2024/02/27 09:00:29;;;;;;;48.60;18.52;;;4.60;99.90;;;;;;5059570;28;20363;-72
2024/02/27 09:02:54;;;;;;;44.00;17.27;;;4.70;99.90;;;;;;5059551;28;20043;-71
2024/02/27 09:05:20;;;;;;;45.72;17.98;;;4.70;99.90;;;;;;5060313;28;20036;-73
2024/02/27 09:07:45;;;;;;;49.40;18.77;;;4.70;99.90;;;;;;5059321;28;20048;-74
2024/02/27 09:10:11;;;;;;;45.30;18.48;;;4.80;99.90;;;;;;5057269;28;20049;-71
2024/02/27 09:12:39;;;;;;;44.92;17.73;;;4.80;99.90;;;;;;5060737;28;20044;-72
2024/02/27 09:15:05;;;;;;;43.22;17.58;;;4.90;99.90;;;;;;5057867;28;20033;-73
2024/02/27 09:17:31;;;;;;;44.47;18.35;;;4.90;99.90;;;;;;5060556;28;20158;-72
2024/02/27 09:19:59;;;;;;;46.35;18.70;;;4.90;99.90;;;;;;5060567;28;20033;-72
2024/02/27 09:22:25;;;;;;;43.83;17.08;;;5.00;99.90;;;;;;5056803;28;20061;-74
2024/02/27 09:24:51;;;;;;;47.50;19.52;;;5.00;99.90;;;;;;5056644;28;20037;-72
2024/02/27 09:27:16;;;;;;;51.53;18.02;;;5.10;99.90;;;;;;5060713;28;20053;-72
2024/02/27 09:29:43;;;;;;;46.88;17.77;;;5.00;99.90;;;;;;5055906;28;20033;-71
2024/02/27 09:32:08;;;;;;;44.95;17.60;;;5.10;99.90;;;;;;5056486;28;20021;-73
2024/02/27 09:34:34;;;;;;;40.60;16.80;;;5.10;99.90;;;;;;5060687;28;20053;-73
2024/02/27 09:37:00;;;;;;;42.97;16.65;;;5.00;99.90;;;;;;5058411;28;20100;-74
2024/02/27 09:39:25;;;;;;;45.45;18.27;;;5.00;99.90;;;;;;5055412;28;20033;-73
2024/02/27 09:42:23;;;;;;;42.67;17.17;;;5.20;99.90;;;;;;5061283;28;20028;-75
2024/02/27 09:44:54;;;;;;;43.30;17.00;;;5.10;99.90;;;;;;5046594;28;20667;-73
2024/02/27 09:47:21;;;;;;;46.42;17.50;;;5.20;99.90;;;;;;5059259;28;20557;-72
2024/02/27 09:49:48;;;;;;;43.65;16.92;;;5.20;99.90;;;;;;5058769;28;20033;-73
2024/02/27 09:52:19;;;;;;;41.50;17.35;;;5.30;99.90;;;;;;5061518;28;20021;-72
2024/02/27 09:54:45;;;;;;;42.50;16.85;;;5.20;99.90;;;;;;5060248;28;20033;-72
2024/02/27 09:57:12;;;;;;;38.45;14.88;;;5.30;99.90;;;;;;5060920;28;20025;-72
2024/02/27 09:59:38;;;;;;;38.22;15.40;;;5.20;99.90;;;;;;5057598;28;20041;-73
2024/02/27 10:02:07;;;;;;;38.42;15.25;;;5.20;99.90;;;;;;5054637;28;20669;-73
2024/02/27 10:04:35;;;;;;;42.53;16.20;;;5.30;99.90;;;;;;5061455;28;20059;-71
2024/02/27 10:07:03;;;;;;;41.55;16.58;;;5.30;99.90;;;;;;5055259;28;20032;-72
2024/02/27 10:09:33;;;;;;;41.00;16.73;;;5.50;99.90;;;;;;5059094;28;20074;-74
2024/02/27 10:11:59;;;;;;;42.20;16.02;;;5.30;99.90;;;;;;5060234;28;20093;-73
2024/02/27 10:14:36;;;;;;;40.63;15.95;;;5.30;99.90;;;;;;5059210;28;20052;-72
2024/02/27 10:17:03;;;;;;;38.92;14.80;;;5.20;99.90;;;;;;5057860;28;20505;-73
2024/02/27 10:19:32;;;;;;;35.10;14.32;;;5.20;99.90;;;;;;5061017;28;20044;-72
2024/02/27 10:21:59;;;;;;;35.65;13.98;;;5.10;99.90;;;;;;5062122;28;20017;-72
2024/02/27 10:24:25;;;;;;;36.47;15.32;;;5.10;99.90;;;;;;5058999;28;20025;-72
2024/02/27 10:27:02;;;;;;;38.55;15.68;;;5.30;99.90;;;;;;5060012;28;20505;-73
2024/02/27 10:29:30;;;;;;;40.30;14.60;;;5.20;99.90;;;;;;5061028;28;20689;-72
2024/02/27 10:31:55;;;;;;;33.88;13.70;;;5.20;99.90;;;;;;5061764;28;20021;-73
2024/02/27 10:34:24;;;;;;;33.35;14.13;;;5.20;99.90;;;;;;5062371;28;20043;-72
2024/02/27 10:37:04;;;;;;;36.67;15.02;;;5.10;99.90;;;;;;5059079;28;20021;-73
2024/02/27 10:39:33;;;;;;;35.30;15.43;;;5.10;99.90;;;;;;5058521;28;20044;-74
2024/02/27 10:41:59;;;;;;;36.90;15.00;;;5.10;99.90;;;;;;5062623;28;20043;-73
2024/02/27 10:44:28;;;;;;;33.67;14.18;;;5.10;99.90;;;;;;5060513;28;20104;-73
2024/02/27 10:46:58;;;;;;;32.20;13.20;;;5.10;99.90;;;;;;5061642;28;20031;-72
2024/02/27 10:49:23;;;;;;;34.35;13.75;;;5.10;99.90;;;;;;5061471;28;20505;-72
2024/02/27 10:51:50;;;;;;;35.30;13.88;;;5.30;99.90;;;;;;5049938;28;20049;-72
2024/02/27 10:54:16;;;;;;;34.13;13.32;;;5.20;99.90;;;;;;5057011;28;20037;-73
2024/02/27 10:56:43;;;;;;;31.85;14.05;;;5.20;99.90;;;;;;5060180;28;20541;-73
2024/02/27 10:59:09;;;;;;;31.95;12.90;;;5.20;99.90;;;;;;5059336;28;21448;-74
2024/02/27 11:01:36;;;;;;;35.13;14.55;;;5.00;99.90;;;;;;5060379;28;20036;-72
2024/02/27 11:04:05;;;;;;;35.55;14.52;;;5.20;99.90;;;;;;5060297;28;20029;-73
2024/02/27 11:06:32;;;;;;;36.63;15.00;;;5.10;99.90;;;;;;5060319;28;20075;-73
2024/02/27 11:09:07;;;;;;;32.30;14.15;;;5.20;99.90;;;;;;5060656;28;20049;-73
2024/02/27 11:11:35;;;;;;;35.33;14.52;;;5.20;99.90;;;;;;5060877;28;20021;-73
2024/02/27 11:14:05;;;;;;;37.50;14.23;;;5.20;99.90;;;;;;5062124;28;20067;-73
2024/02/27 11:16:32;;;;;;;34.58;13.38;;;5.30;99.90;;;;;;5061703;28;20051;-72
2024/02/27 11:19:12;;;;;;;32.33;14.15;;;5.30;99.90;;;;;;5061700;28;20033;-72
2024/02/27 11:21:40;;;;;;;30.85;13.57;;;5.40;99.90;;;;;;5058296;28;20032;-73
2024/02/27 11:24:06;;;;;;;34.92;13.48;;;5.50;99.90;;;;;;5060107;28;20025;-75
2024/02/27 11:26:32;;;;;;;33.30;12.95;;;5.50;99.90;;;;;;5059383;28;20035;-73
2024/02/27 11:28:58;;;;;;;34.35;14.10;;;5.50;99.90;;;;;;5061968;28;20028;-73
2024/02/27 11:31:25;;;;;;;33.42;14.63;;;5.50;99.90;;;;;;5060079;28;20486;-74
2024/02/27 11:33:51;;;;;;;35.75;14.15;;;5.60;99.90;;;;;;5061835;28;20402;-73
2024/02/27 11:36:17;;;;;;;33.45;13.15;;;5.70;99.90;;;;;;5065541;28;20031;-72
2024/02/27 11:38:43;;;;;;;30.98;14.30;;;5.80;99.90;;;;;;5065579;28;20072;-74
2024/02/27 11:41:21;;;;;;;31.33;13.30;;;5.80;99.90;;;;;;5064797;28;20442;-74
2024/02/27 11:43:48;;;;;;;33.53;13.95;;;5.90;99.90;;;;;;5064360;28;20040;-73
2024/02/27 11:46:34;;;;;;;32.90;13.02;;;6.00;99.90;;;;;;5064096;28;20096;-73
2024/02/27 11:49:00;;;;;;;29.13;13.10;;;5.90;99.90;;;;;;5064825;28;20025;-74
2024/02/27 11:51:30;;;;;;;27.00;12.52;;;6.00;99.90;;;;;;5064224;28;20028;-73
2024/02/27 11:53:56;;;;;;;29.05;12.18;;;6.00;99.90;;;;;;5064892;28;20025;-74
2024/02/27 11:56:22;;;;;;;27.55;11.88;;;5.90;99.90;;;;;;5065089;28;20017;-75
2024/02/27 11:58:49;;;;;;;29.70;12.45;;;5.90;99.90;;;;;;5065373;28;20033;-73
2024/02/27 12:01:15;;;;;;;28.15;11.82;;;5.90;99.90;;;;;;5064501;28;20036;-72
2024/02/27 12:03:49;;;;;;;25.73;10.85;;;5.90;99.90;;;;;;5064012;28;20021;-72
2024/02/27 12:06:15;;;;;;;28.73;12.60;;;5.90;99.90;;;;;;5063862;28;20029;-72
2024/02/27 12:08:48;;;;;;;26.65;12.05;;;5.90;99.90;;;;;;5063396;28;20049;-72
2024/02/27 12:11:18;;;;;;;24.50;10.18;;;6.00;99.90;;;;;;5063422;28;20037;-72
2024/02/27 12:13:48;;;;;;;26.00;11.18;;;6.10;99.90;;;;;;5064461;28;20057;-72
2024/02/27 12:16:25;;;;;;;26.83;11.85;;;6.10;99.90;;;;;;5063345;28;20024;-72
2024/02/27 12:18:56;;;;;;;25.73;11.32;;;6.10;99.90;;;;;;5062969;28;20052;-73
2024/02/27 12:21:32;;;;;;;26.77;11.38;;;6.20;99.90;;;;;;5064734;28;20088;-73
2024/02/27 12:24:09;;;;;;;26.45;10.80;;;6.10;99.90;;;;;;5064259;28;20488;-73
2024/02/27 12:26:35;;;;;;;23.35;11.15;;;6.20;99.90;;;;;;5063321;28;20048;-73
2024/02/27 12:29:01;;;;;;;24.83;10.77;;;6.20;99.90;;;;;;5061231;28;20032;-73
2024/02/27 12:31:31;;;;;;;28.48;11.75;;;6.20;99.90;;;;;;5062093;28;20096;-74
2024/02/27 12:34:00;;;;;;;23.00;10.77;;;6.20;99.90;;;;;;5062882;28;20032;-74